sensor_id;sensor_type;location;lat;lon;timestamp;temperature;humidity
8248;DHT22;4164;49.844;8.830;2023-07-02T00:01:46;17.40;99.90
8248;DHT22;4164;49.844;8.830;2023-07-02T00:04:13;17.40;99.90
8248;DHT22;4164;49.844;8.830;2023-07-02T00:06:42;17.40;99.90
8248;DHT22;4164;49.844;8.830;2023-07-02T00:09:08;17.40;99.90
8248;DHT22;4164;49.844;8.830;2023-07-02T00:11:35;17.30;99.90
8248;DHT22;4164;49.844;8.830;2023-07-02T00:14:01;17.30;99.90
8248;DHT22;4164;49.844;8.830;2023-07-02T00:16:26;17.30;26.00
8248;DHT22;4164;49.844;8.830;2023-07-02T00:18:52;17.30;1.00
8248;DHT22;4164;49.844;8.830;2023-07-02T00:21:19;17.30;1.00
8248;DHT22;4164;49.844;8.830;2023-07-02T00:23:45;17.30;1.00
8248;DHT22;4164;49.844;8.830;2023-07-02T00:26:11;17.30;1.00
8248;DHT22;4164;49.844;8.830;2023-07-02T00:28:36;17.30;1.00
8248;DHT22;4164;49.844;8.830;2023-07-02T00:31:02;17.30;1.00
8248;DHT22;4164;49.844;8.830;2023-07-02T00:33:29;17.30;99.90
8248;DHT22;4164;49.844;8.830;2023-07-02T00:35:55;17.30;99.90
8248;DHT22;4164;49.844;8.830;2023-07-02T00:38:22;17.30;99.90
8248;DHT22;4164;49.844;8.830;2023-07-02T00:40:47;17.30;99.90
8248;DHT22;4164;49.844;8.830;2023-07-02T00:43:13;17.20;99.90
8248;DHT22;4164;49.844;8.830;2023-07-02T00:45:39;17.20;99.90
8248;DHT22;4164;49.844;8.830;2023-07-02T00:48:06;17.10;1.00
8248;DHT22;4164;49.844;8.830;2023-07-02T00:50:32;17.10;99.90
8248;DHT22;4164;49.844;8.830;2023-07-02T00:52:58;17.10;1.00
8248;DHT22;4164;49.844;8.830;2023-07-02T00:55:24;17.00;1.00
8248;DHT22;4164;49.844;8.830;2023-07-02T00:57:50;17.10;99.90
8248;DHT22;4164;49.844;8.830;2023-07-02T01:00:15;17.10;99.90
8248;DHT22;4164;49.844;8.830;2023-07-02T01:02:41;17.10;99.90
8248;DHT22;4164;49.844;8.830;2023-07-02T01:05:16;17.00;99.90
8248;DHT22;4164;49.844;8.830;2023-07-02T01:07:41;16.90;99.90
8248;DHT22;4164;49.844;8.830;2023-07-02T01:10:08;16.80;1.00
8248;DHT22;4164;49.844;8.830;2023-07-02T01:12:34;16.80;1.00
8248;DHT22;4164;49.844;8.830;2023-07-02T01:15:03;16.70;1.00
8248;DHT22;4164;49.844;8.830;2023-07-02T01:17:31;16.70;1.00
8248;DHT22;4164;49.844;8.830;2023-07-02T01:20:03;16.60;1.00
8248;DHT22;4164;49.844;8.830;2023-07-02T01:22:30;16.50;1.00
8248;DHT22;4164;49.844;8.830;2023-07-02T01:24:56;16.50;1.00
8248;DHT22;4164;49.844;8.830;2023-07-02T01:27:22;16.40;1.00
8248;DHT22;4164;49.844;8.830;2023-07-02T01:29:52;16.40;1.00
8248;DHT22;4164;49.844;8.830;2023-07-02T01:32:17;16.40;1.00
8248;DHT22;4164;49.844;8.830;2023-07-02T01:34:43;16.40;1.00
8248;DHT22;4164;49.844;8.830;2023-07-02T01:37:15;16.30;1.00
8248;DHT22;4164;49.844;8.830;2023-07-02T01:39:42;16.20;1.00
8248;DHT22;4164;49.844;8.830;2023-07-02T01:42:10;16.20;1.00
8248;DHT22;4164;49.844;8.830;2023-07-02T01:44:36;16.20;1.00
8248;DHT22;4164;49.844;8.830;2023-07-02T01:47:02;16.10;1.00
8248;DHT22;4164;49.844;8.830;2023-07-02T01:49:28;16.10;1.00
8248;DHT22;4164;49.844;8.830;2023-07-02T01:51:55;16.00;42.90
8248;DHT22;4164;49.844;8.830;2023-07-02T01:54:23;16.00;22.80
8248;DHT22;4164;49.844;8.830;2023-07-02T01:56:48;16.00;1.00
8248;DHT22;4164;49.844;8.830;2023-07-02T01:59:15;16.00;1.00
8248;DHT22;4164;49.844;8.830;2023-07-02T02:01:40;15.90;20.10
8248;DHT22;4164;49.844;8.830;2023-07-02T02:04:10;15.90;28.00
8248;DHT22;4164;49.844;8.830;2023-07-02T02:06:36;15.90;1.00
8248;DHT22;4164;49.844;8.830;2023-07-02T02:09:03;15.80;1.00
8248;DHT22;4164;49.844;8.830;2023-07-02T02:11:33;15.80;99.90
8248;DHT22;4164;49.844;8.830;2023-07-02T02:13:59;15.80;79.50
8248;DHT22;4164;49.844;8.830;2023-07-02T02:16:27;15.80;1.00
8248;DHT22;4164;49.844;8.830;2023-07-02T02:18:53;15.90;99.90
8248;DHT22;4164;49.844;8.830;2023-07-02T02:21:20;15.90;13.50
8248;DHT22;4164;49.844;8.830;2023-07-02T02:23:46;16.00;99.90
8248;DHT22;4164;49.844;8.830;2023-07-02T02:26:11;16.00;99.90
8248;DHT22;4164;49.844;8.830;2023-07-02T02:28:37;16.00;1.00
8248;DHT22;4164;49.844;8.830;2023-07-02T02:31:03;16.00;1.00
8248;DHT22;4164;49.844;8.830;2023-07-02T02:33:29;16.00;1.00
8248;DHT22;4164;49.844;8.830;2023-07-02T02:35:55;16.00;1.00
8248;DHT22;4164;49.844;8.830;2023-07-02T02:38:20;15.90;1.00
8248;DHT22;4164;49.844;8.830;2023-07-02T02:40:46;15.90;1.00
8248;DHT22;4164;49.844;8.830;2023-07-02T02:43:11;15.80;99.90
8248;DHT22;4164;49.844;8.830;2023-07-02T02:45:38;15.90;99.90
8248;DHT22;4164;49.844;8.830;2023-07-02T02:48:03;15.90;42.40
8248;DHT22;4164;49.844;8.830;2023-07-02T02:50:29;15.80;1.00
8248;DHT22;4164;49.844;8.830;2023-07-02T02:52:54;15.80;99.90
8248;DHT22;4164;49.844;8.830;2023-07-02T02:55:21;15.80;99.90
8248;DHT22;4164;49.844;8.830;2023-07-02T02:57:46;15.80;99.90
8248;DHT22;4164;49.844;8.830;2023-07-02T03:00:12;15.70;99.90
8248;DHT22;4164;49.844;8.830;2023-07-02T03:02:38;15.70;93.20
8248;DHT22;4164;49.844;8.830;2023-07-02T03:05:05;15.70;99.90
8248;DHT22;4164;49.844;8.830;2023-07-02T03:07:32;15.70;99.90
8248;DHT22;4164;49.844;8.830;2023-07-02T03:09:57;15.70;99.90
8248;DHT22;4164;49.844;8.830;2023-07-02T03:12:24;15.70;99.90
8248;DHT22;4164;49.844;8.830;2023-07-02T03:14:50;15.70;99.90
8248;DHT22;4164;49.844;8.830;2023-07-02T03:17:19;15.70;99.90
8248;DHT22;4164;49.844;8.830;2023-07-02T03:19:45;15.80;99.90
8248;DHT22;4164;49.844;8.830;2023-07-02T03:22:10;15.80;99.90
8248;DHT22;4164;49.844;8.830;2023-07-02T03:24:36;15.70;99.90
8248;DHT22;4164;49.844;8.830;2023-07-02T03:27:04;15.70;99.90
8248;DHT22;4164;49.844;8.830;2023-07-02T03:29:30;15.70;99.90
8248;DHT22;4164;49.844;8.830;2023-07-02T03:31:56;15.70;99.90
8248;DHT22;4164;49.844;8.830;2023-07-02T03:34:22;15.60;99.90
8248;DHT22;4164;49.844;8.830;2023-07-02T03:36:49;15.60;99.90
8248;DHT22;4164;49.844;8.830;2023-07-02T03:39:15;15.60;99.90
8248;DHT22;4164;49.844;8.830;2023-07-02T03:41:41;15.50;99.90
8248;DHT22;4164;49.844;8.830;2023-07-02T03:44:07;15.50;99.90
8248;DHT22;4164;49.844;8.830;2023-07-02T03:46:32;15.60;99.90
8248;DHT22;4164;49.844;8.830;2023-07-02T03:48:58;15.60;99.90
8248;DHT22;4164;49.844;8.830;2023-07-02T03:51:23;15.70;99.90
8248;DHT22;4164;49.844;8.830;2023-07-02T03:53:49;15.70;99.90
8248;DHT22;4164;49.844;8.830;2023-07-02T03:56:14;15.70;99.90
8248;DHT22;4164;49.844;8.830;2023-07-02T03:58:40;15.70;99.90
8248;DHT22;4164;49.844;8.830;2023-07-02T04:01:06;15.60;99.90
8248;DHT22;4164;49.844;8.830;2023-07-02T04:03:31;15.60;99.90
8248;DHT22;4164;49.844;8.830;2023-07-02T04:05:57;15.50;99.90
8248;DHT22;4164;49.844;8.830;2023-07-02T04:08:22;15.50;99.90
8248;DHT22;4164;49.844;8.830;2023-07-02T04:10:50;15.50;99.90
8248;DHT22;4164;49.844;8.830;2023-07-02T04:13:15;15.50;99.90
8248;DHT22;4164;49.844;8.830;2023-07-02T04:15:41;15.50;99.90
8248;DHT22;4164;49.844;8.830;2023-07-02T04:18:07;15.60;99.90
8248;DHT22;4164;49.844;8.830;2023-07-02T04:20:32;15.60;1.00
8248;DHT22;4164;49.844;8.830;2023-07-02T04:22:58;15.70;99.90
8248;DHT22;4164;49.844;8.830;2023-07-02T04:25:24;15.70;99.90
8248;DHT22;4164;49.844;8.830;2023-07-02T04:27:50;15.80;99.90
8248;DHT22;4164;49.844;8.830;2023-07-02T04:30:15;15.80;99.90
8248;DHT22;4164;49.844;8.830;2023-07-02T04:32:41;15.90;99.90
8248;DHT22;4164;49.844;8.830;2023-07-02T04:35:07;15.90;99.90
8248;DHT22;4164;49.844;8.830;2023-07-02T04:37:33;15.90;99.90
8248;DHT22;4164;49.844;8.830;2023-07-02T04:39:59;15.90;99.90
8248;DHT22;4164;49.844;8.830;2023-07-02T04:42:26;16.00;99.90
8248;DHT22;4164;49.844;8.830;2023-07-02T04:44:57;16.00;99.90
8248;DHT22;4164;49.844;8.830;2023-07-02T04:47:27;16.00;99.90
8248;DHT22;4164;49.844;8.830;2023-07-02T04:49:52;16.00;15.10
8248;DHT22;4164;49.844;8.830;2023-07-02T04:52:18;16.10;1.00
8248;DHT22;4164;49.844;8.830;2023-07-02T04:54:43;16.10;1.00
8248;DHT22;4164;49.844;8.830;2023-07-02T04:57:09;16.20;1.00
8248;DHT22;4164;49.844;8.830;2023-07-02T04:59:34;16.20;1.00
8248;DHT22;4164;49.844;8.830;2023-07-02T05:02:00;16.30;1.00
8248;DHT22;4164;49.844;8.830;2023-07-02T05:04:25;16.30;1.00
8248;DHT22;4164;49.844;8.830;2023-07-02T05:06:51;16.40;99.90
8248;DHT22;4164;49.844;8.830;2023-07-02T05:09:17;16.60;99.90
8248;DHT22;4164;49.844;8.830;2023-07-02T05:11:42;16.60;99.90
8248;DHT22;4164;49.844;8.830;2023-07-02T05:14:08;16.70;99.90
8248;DHT22;4164;49.844;8.830;2023-07-02T05:16:33;16.80;99.90
8248;DHT22;4164;49.844;8.830;2023-07-02T05:18:59;16.90;84.30
8248;DHT22;4164;49.844;8.830;2023-07-02T05:21:24;16.90;96.10
8248;DHT22;4164;49.844;8.830;2023-07-02T05:23:50;17.00;11.90
8248;DHT22;4164;49.844;8.830;2023-07-02T05:26:15;17.00;1.00
8248;DHT22;4164;49.844;8.830;2023-07-02T05:28:41;17.10;28.20
8248;DHT22;4164;49.844;8.830;2023-07-02T05:31:06;17.20;92.20
8248;DHT22;4164;49.844;8.830;2023-07-02T05:33:32;17.20;1.00
8248;DHT22;4164;49.844;8.830;2023-07-02T05:35:58;17.30;1.00
8248;DHT22;4164;49.844;8.830;2023-07-02T05:38:24;17.30;1.00
8248;DHT22;4164;49.844;8.830;2023-07-02T05:40:50;17.30;99.90
8248;DHT22;4164;49.844;8.830;2023-07-02T05:43:16;17.30;1.00
8248;DHT22;4164;49.844;8.830;2023-07-02T05:45:41;17.30;1.00
8248;DHT22;4164;49.844;8.830;2023-07-02T05:48:07;17.60;1.00
8248;DHT22;4164;49.844;8.830;2023-07-02T05:50:32;17.60;1.00
8248;DHT22;4164;49.844;8.830;2023-07-02T05:52:58;17.40;1.00
8248;DHT22;4164;49.844;8.830;2023-07-02T05:55:24;17.60;1.00
8248;DHT22;4164;49.844;8.830;2023-07-02T05:57:49;17.80;1.00
8248;DHT22;4164;49.844;8.830;2023-07-02T06:00:15;17.50;1.00
8248;DHT22;4164;49.844;8.830;2023-07-02T06:02:41;17.30;1.00
8248;DHT22;4164;49.844;8.830;2023-07-02T06:05:06;17.30;1.00
8248;DHT22;4164;49.844;8.830;2023-07-02T06:07:35;17.60;1.00
8248;DHT22;4164;49.844;8.830;2023-07-02T06:10:01;17.50;1.00
8248;DHT22;4164;49.844;8.830;2023-07-02T06:12:26;17.40;1.00
8248;DHT22;4164;49.844;8.830;2023-07-02T06:14:52;17.40;1.00
8248;DHT22;4164;49.844;8.830;2023-07-02T06:17:17;17.50;1.00
8248;DHT22;4164;49.844;8.830;2023-07-02T06:19:44;17.70;1.00
8248;DHT22;4164;49.844;8.830;2023-07-02T06:22:10;18.00;1.00
8248;DHT22;4164;49.844;8.830;2023-07-02T06:24:35;17.90;1.00
8248;DHT22;4164;49.844;8.830;2023-07-02T06:27:01;18.00;1.00
8248;DHT22;4164;49.844;8.830;2023-07-02T06:29:27;17.90;1.00
8248;DHT22;4164;49.844;8.830;2023-07-02T06:31:54;17.80;1.00
8248;DHT22;4164;49.844;8.830;2023-07-02T06:34:19;17.60;1.00
8248;DHT22;4164;49.844;8.830;2023-07-02T06:36:45;17.80;1.00
8248;DHT22;4164;49.844;8.830;2023-07-02T06:39:10;17.70;1.00
8248;DHT22;4164;49.844;8.830;2023-07-02T06:41:36;17.50;1.00
8248;DHT22;4164;49.844;8.830;2023-07-02T06:44:02;17.60;1.00
8248;DHT22;4164;49.844;8.830;2023-07-02T06:46:29;17.50;1.00
8248;DHT22;4164;49.844;8.830;2023-07-02T06:48:55;17.60;1.00
8248;DHT22;4164;49.844;8.830;2023-07-02T06:51:21;17.50;1.00
8248;DHT22;4164;49.844;8.830;2023-07-02T06:53:47;17.70;1.00
8248;DHT22;4164;49.844;8.830;2023-07-02T06:56:12;17.60;1.00
8248;DHT22;4164;49.844;8.830;2023-07-02T06:58:41;17.70;1.00
8248;DHT22;4164;49.844;8.830;2023-07-02T07:01:07;17.80;1.00
8248;DHT22;4164;49.844;8.830;2023-07-02T07:03:33;17.60;1.00
8248;DHT22;4164;49.844;8.830;2023-07-02T07:05:59;17.60;1.00
8248;DHT22;4164;49.844;8.830;2023-07-02T07:08:25;17.80;1.00
8248;DHT22;4164;49.844;8.830;2023-07-02T07:10:50;17.90;1.00
8248;DHT22;4164;49.844;8.830;2023-07-02T07:13:16;17.80;1.00
8248;DHT22;4164;49.844;8.830;2023-07-02T07:15:42;17.70;1.00
8248;DHT22;4164;49.844;8.830;2023-07-02T07:18:09;18.00;1.00
8248;DHT22;4164;49.844;8.830;2023-07-02T07:20:34;17.90;99.90
8248;DHT22;4164;49.844;8.830;2023-07-02T07:23:02;18.10;1.00
8248;DHT22;4164;49.844;8.830;2023-07-02T07:25:28;18.40;99.90
8248;DHT22;4164;49.844;8.830;2023-07-02T07:27:53;18.50;99.90
8248;DHT22;4164;49.844;8.830;2023-07-02T07:30:20;18.90;99.90
8248;DHT22;4164;49.844;8.830;2023-07-02T07:32:49;19.10;99.90
8248;DHT22;4164;49.844;8.830;2023-07-02T07:35:15;19.30;99.90
8248;DHT22;4164;49.844;8.830;2023-07-02T07:37:41;19.30;7.80
8248;DHT22;4164;49.844;8.830;2023-07-02T07:40:07;19.00;1.00
8248;DHT22;4164;49.844;8.830;2023-07-02T07:42:33;18.70;14.00
8248;DHT22;4164;49.844;8.830;2023-07-02T07:44:58;18.80;1.00
8248;DHT22;4164;49.844;8.830;2023-07-02T07:47:24;19.00;1.00
8248;DHT22;4164;49.844;8.830;2023-07-02T07:49:49;19.10;1.00
8248;DHT22;4164;49.844;8.830;2023-07-02T07:52:15;19.40;1.00
8248;DHT22;4164;49.844;8.830;2023-07-02T07:54:41;19.50;1.00
8248;DHT22;4164;49.844;8.830;2023-07-02T07:57:06;19.60;1.00
8248;DHT22;4164;49.844;8.830;2023-07-02T07:59:32;19.30;1.00
8248;DHT22;4164;49.844;8.830;2023-07-02T08:01:58;19.50;1.00
8248;DHT22;4164;49.844;8.830;2023-07-02T08:04:23;19.60;1.00
8248;DHT22;4164;49.844;8.830;2023-07-02T08:06:49;19.90;1.00
8248;DHT22;4164;49.844;8.830;2023-07-02T08:09:14;20.10;1.00
8248;DHT22;4164;49.844;8.830;2023-07-02T08:11:40;20.10;1.00
8248;DHT22;4164;49.844;8.830;2023-07-02T08:14:05;20.00;1.00
8248;DHT22;4164;49.844;8.830;2023-07-02T08:16:31;20.10;1.00
8248;DHT22;4164;49.844;8.830;2023-07-02T08:18:56;20.10;1.00
8248;DHT22;4164;49.844;8.830;2023-07-02T08:21:22;20.00;99.90
8248;DHT22;4164;49.844;8.830;2023-07-02T08:23:47;20.20;99.90
8248;DHT22;4164;49.844;8.830;2023-07-02T08:26:13;20.30;99.90
8248;DHT22;4164;49.844;8.830;2023-07-02T08:28:39;20.70;99.90
8248;DHT22;4164;49.844;8.830;2023-07-02T08:31:05;21.20;99.90
8248;DHT22;4164;49.844;8.830;2023-07-02T08:33:31;21.00;99.90
8248;DHT22;4164;49.844;8.830;2023-07-02T08:35:57;20.50;99.90
8248;DHT22;4164;49.844;8.830;2023-07-02T08:38:23;20.90;99.90
8248;DHT22;4164;49.844;8.830;2023-07-02T08:40:49;20.90;99.90
8248;DHT22;4164;49.844;8.830;2023-07-02T08:43:15;20.90;99.90
8248;DHT22;4164;49.844;8.830;2023-07-02T08:45:44;21.10;99.90
8248;DHT22;4164;49.844;8.830;2023-07-02T08:48:10;20.90;99.90
8248;DHT22;4164;49.844;8.830;2023-07-02T08:50:36;21.00;99.90
8248;DHT22;4164;49.844;8.830;2023-07-02T08:53:02;20.80;99.90
8248;DHT22;4164;49.844;8.830;2023-07-02T08:55:27;20.50;99.90
8248;DHT22;4164;49.844;8.830;2023-07-02T08:57:56;20.50;99.90
8248;DHT22;4164;49.844;8.830;2023-07-02T09:00:26;20.60;99.90
8248;DHT22;4164;49.844;8.830;2023-07-02T09:02:52;20.30;99.90
8248;DHT22;4164;49.844;8.830;2023-07-02T09:05:18;20.30;99.90
8248;DHT22;4164;49.844;8.830;2023-07-02T09:07:47;20.40;99.90
8248;DHT22;4164;49.844;8.830;2023-07-02T09:10:29;20.30;99.90
8248;DHT22;4164;49.844;8.830;2023-07-02T09:13:07;20.30;99.90
8248;DHT22;4164;49.844;8.830;2023-07-02T09:15:39;20.40;99.90
8248;DHT22;4164;49.844;8.830;2023-07-02T09:18:15;20.50;99.90
8248;DHT22;4164;49.844;8.830;2023-07-02T09:20:41;20.90;99.90
8248;DHT22;4164;49.844;8.830;2023-07-02T09:23:07;21.10;99.90
8248;DHT22;4164;49.844;8.830;2023-07-02T09:25:39;21.20;99.90
8248;DHT22;4164;49.844;8.830;2023-07-02T09:28:22;21.30;99.90
8248;DHT22;4164;49.844;8.830;2023-07-02T09:30:57;21.70;99.90
8248;DHT22;4164;49.844;8.830;2023-07-02T09:33:24;22.00;99.90
8248;DHT22;4164;49.844;8.830;2023-07-02T09:35:49;22.30;99.90
8248;DHT22;4164;49.844;8.830;2023-07-02T09:38:16;21.70;99.90
8248;DHT22;4164;49.844;8.830;2023-07-02T09:40:50;21.40;99.90
8248;DHT22;4164;49.844;8.830;2023-07-02T09:43:16;21.20;99.90
8248;DHT22;4164;49.844;8.830;2023-07-02T09:45:43;21.60;99.90
8248;DHT22;4164;49.844;8.830;2023-07-02T09:48:15;21.90;99.90
8248;DHT22;4164;49.844;8.830;2023-07-02T09:50:45;22.00;99.90
8248;DHT22;4164;49.844;8.830;2023-07-02T09:53:11;21.60;99.90
8248;DHT22;4164;49.844;8.830;2023-07-02T09:55:38;21.90;99.90
8248;DHT22;4164;49.844;8.830;2023-07-02T09:58:04;22.20;99.90
8248;DHT22;4164;49.844;8.830;2023-07-02T10:00:30;22.60;99.90
8248;DHT22;4164;49.844;8.830;2023-07-02T10:02:56;22.20;99.90
8248;DHT22;4164;49.844;8.830;2023-07-02T10:05:28;21.90;99.90
8248;DHT22;4164;49.844;8.830;2023-07-02T10:07:56;21.40;99.90
8248;DHT22;4164;49.844;8.830;2023-07-02T10:10:32;21.50;99.90
8248;DHT22;4164;49.844;8.830;2023-07-02T10:12:57;21.20;99.90
8248;DHT22;4164;49.844;8.830;2023-07-02T10:15:25;21.60;99.90
8248;DHT22;4164;49.844;8.830;2023-07-02T10:17:58;22.40;99.90
8248;DHT22;4164;49.844;8.830;2023-07-02T10:20:38;22.00;99.90
8248;DHT22;4164;49.844;8.830;2023-07-02T10:23:05;21.70;99.90
8248;DHT22;4164;49.844;8.830;2023-07-02T10:25:32;22.40;99.90
8248;DHT22;4164;49.844;8.830;2023-07-02T10:28:00;22.20;99.90
8248;DHT22;4164;49.844;8.830;2023-07-02T10:30:33;22.20;99.90
8248;DHT22;4164;49.844;8.830;2023-07-02T10:33:16;21.90;99.90
8248;DHT22;4164;49.844;8.830;2023-07-02T10:35:44;21.70;99.90
8248;DHT22;4164;49.844;8.830;2023-07-02T10:38:17;21.60;99.90
8248;DHT22;4164;49.844;8.830;2023-07-02T10:40:43;21.70;99.90
8248;DHT22;4164;49.844;8.830;2023-07-02T10:43:08;21.90;99.90
8248;DHT22;4164;49.844;8.830;2023-07-02T10:45:35;22.20;99.90
8248;DHT22;4164;49.844;8.830;2023-07-02T10:48:11;22.20;99.90
8248;DHT22;4164;49.844;8.830;2023-07-02T10:50:36;22.50;99.90
8248;DHT22;4164;49.844;8.830;2023-07-02T10:53:03;22.80;99.90
8248;DHT22;4164;49.844;8.830;2023-07-02T10:55:28;22.90;99.90
8248;DHT22;4164;49.844;8.830;2023-07-02T10:58:05;22.60;99.90
8248;DHT22;4164;49.844;8.830;2023-07-02T11:00:31;22.30;99.90
8248;DHT22;4164;49.844;8.830;2023-07-02T11:02:57;22.40;99.90
8248;DHT22;4164;49.844;8.830;2023-07-02T11:05:23;22.60;99.90
8248;DHT22;4164;49.844;8.830;2023-07-02T11:07:48;22.70;99.90
8248;DHT22;4164;49.844;8.830;2023-07-02T11:10:20;22.90;99.90
8248;DHT22;4164;49.844;8.830;2023-07-02T11:12:45;23.50;99.90
8248;DHT22;4164;49.844;8.830;2023-07-02T11:15:15;23.10;99.90
8248;DHT22;4164;49.844;8.830;2023-07-02T11:17:41;23.40;99.90
8248;DHT22;4164;49.844;8.830;2023-07-02T11:20:12;24.20;99.90
8248;DHT22;4164;49.844;8.830;2023-07-02T11:22:38;23.50;99.90
8248;DHT22;4164;49.844;8.830;2023-07-02T11:25:15;23.60;99.90
8248;DHT22;4164;49.844;8.830;2023-07-02T11:27:41;24.20;99.90
8248;DHT22;4164;49.844;8.830;2023-07-02T11:30:10;23.80;99.90
8248;DHT22;4164;49.844;8.830;2023-07-02T11:32:50;24.40;99.90
8248;DHT22;4164;49.844;8.830;2023-07-02T11:35:17;24.40;99.90
8248;DHT22;4164;49.844;8.830;2023-07-02T11:37:43;25.00;99.90
8248;DHT22;4164;49.844;8.830;2023-07-02T11:40:09;26.00;99.90
8248;DHT22;4164;49.844;8.830;2023-07-02T11:42:35;26.60;99.90
8248;DHT22;4164;49.844;8.830;2023-07-02T11:45:00;27.00;99.90
8248;DHT22;4164;49.844;8.830;2023-07-02T11:47:26;26.70;99.90
8248;DHT22;4164;49.844;8.830;2023-07-02T11:49:53;27.30;99.90
8248;DHT22;4164;49.844;8.830;2023-07-02T11:52:23;28.10;97.30
8248;DHT22;4164;49.844;8.830;2023-07-02T11:54:48;28.20;92.70
8248;DHT22;4164;49.844;8.830;2023-07-02T11:57:14;27.30;86.50
8248;DHT22;4164;49.844;8.830;2023-07-02T11:59:41;26.00;80.40
8248;DHT22;4164;49.844;8.830;2023-07-02T12:02:06;25.40;76.30
8248;DHT22;4164;49.844;8.830;2023-07-02T12:04:32;26.30;81.50
8248;DHT22;4164;49.844;8.830;2023-07-02T12:06:57;27.30;80.70
8248;DHT22;4164;49.844;8.830;2023-07-02T12:09:23;27.90;79.70
8248;DHT22;4164;49.844;8.830;2023-07-02T12:11:48;27.40;72.20
8248;DHT22;4164;49.844;8.830;2023-07-02T12:14:14;28.70;74.60
8248;DHT22;4164;49.844;8.830;2023-07-02T12:16:39;29.80;62.60
8248;DHT22;4164;49.844;8.830;2023-07-02T12:19:05;29.10;58.20
8248;DHT22;4164;49.844;8.830;2023-07-02T12:21:31;28.80;47.90
8248;DHT22;4164;49.844;8.830;2023-07-02T12:23:57;27.30;46.00
8248;DHT22;4164;49.844;8.830;2023-07-02T12:26:22;29.30;50.70
8248;DHT22;4164;49.844;8.830;2023-07-02T12:28:48;26.70;37.40
8248;DHT22;4164;49.844;8.830;2023-07-02T12:31:13;26.30;39.70
8248;DHT22;4164;49.844;8.830;2023-07-02T12:33:39;28.30;46.70
8248;DHT22;4164;49.844;8.830;2023-07-02T12:36:05;29.50;41.70
8248;DHT22;4164;49.844;8.830;2023-07-02T12:38:30;26.50;30.90
8248;DHT22;4164;49.844;8.830;2023-07-02T12:40:56;25.20;29.90
8248;DHT22;4164;49.844;8.830;2023-07-02T12:43:22;24.80;30.70
8248;DHT22;4164;49.844;8.830;2023-07-02T12:45:48;24.40;30.20
8248;DHT22;4164;49.844;8.830;2023-07-02T12:48:13;24.40;33.20
8248;DHT22;4164;49.844;8.830;2023-07-02T12:50:39;25.40;37.30
8248;DHT22;4164;49.844;8.830;2023-07-02T12:53:05;27.00;40.90
8248;DHT22;4164;49.844;8.830;2023-07-02T12:55:30;26.00;35.80
8248;DHT22;4164;49.844;8.830;2023-07-02T12:57:56;26.60;38.80
8248;DHT22;4164;49.844;8.830;2023-07-02T13:00:22;27.50;38.40
8248;DHT22;4164;49.844;8.830;2023-07-02T13:02:48;29.40;40.40
8248;DHT22;4164;49.844;8.830;2023-07-02T13:05:13;28.60;30.90
8248;DHT22;4164;49.844;8.830;2023-07-02T13:07:39;26.60;27.20
8248;DHT22;4164;49.844;8.830;2023-07-02T13:10:05;24.80;23.80
8248;DHT22;4164;49.844;8.830;2023-07-02T13:12:31;25.20;26.60
8248;DHT22;4164;49.844;8.830;2023-07-02T13:14:56;24.30;24.40
8248;DHT22;4164;49.844;8.830;2023-07-02T13:17:22;24.40;24.20
8248;DHT22;4164;49.844;8.830;2023-07-02T13:19:48;26.10;30.30
8248;DHT22;4164;49.844;8.830;2023-07-02T13:22:14;26.20;27.10
8248;DHT22;4164;49.844;8.830;2023-07-02T13:24:39;25.00;24.30
8248;DHT22;4164;49.844;8.830;2023-07-02T13:27:11;24.40;24.30
8248;DHT22;4164;49.844;8.830;2023-07-02T13:29:38;23.80;23.50
8248;DHT22;4164;49.844;8.830;2023-07-02T13:32:03;23.90;24.80
8248;DHT22;4164;49.844;8.830;2023-07-02T13:34:29;25.40;29.50
8248;DHT22;4164;49.844;8.830;2023-07-02T13:36:55;26.20;29.50
8248;DHT22;4164;49.844;8.830;2023-07-02T13:39:20;24.80;24.70
8248;DHT22;4164;49.844;8.830;2023-07-02T13:41:46;24.80;26.10
8248;DHT22;4164;49.844;8.830;2023-07-02T13:44:11;24.60;25.80
8248;DHT22;4164;49.844;8.830;2023-07-02T13:46:37;24.40;25.90
8248;DHT22;4164;49.844;8.830;2023-07-02T13:49:02;25.00;28.30
8248;DHT22;4164;49.844;8.830;2023-07-02T13:51:28;25.00;27.40
8248;DHT22;4164;49.844;8.830;2023-07-02T13:53:53;24.00;25.10
8248;DHT22;4164;49.844;8.830;2023-07-02T13:56:19;25.20;28.70
8248;DHT22;4164;49.844;8.830;2023-07-02T14:01:23;27.10;32.90
8248;DHT22;4164;49.844;8.830;2023-07-02T14:03:49;27.80;30.00
8248;DHT22;4164;49.844;8.830;2023-07-02T14:06:14;27.00;28.00
8248;DHT22;4164;49.844;8.830;2023-07-02T14:08:41;26.30;25.20
8248;DHT22;4164;49.844;8.830;2023-07-02T14:11:07;25.70;23.40
8248;DHT22;4164;49.844;8.830;2023-07-02T14:13:32;25.60;23.80
8248;DHT22;4164;49.844;8.830;2023-07-02T14:15:59;24.90;22.60
8248;DHT22;4164;49.844;8.830;2023-07-02T14:18:24;27.10;30.30
8248;DHT22;4164;49.844;8.830;2023-07-02T14:20:50;27.70;26.80
8248;DHT22;4164;49.844;8.830;2023-07-02T14:23:16;26.50;22.10
8248;DHT22;4164;49.844;8.830;2023-07-02T14:25:41;25.60;21.30
8248;DHT22;4164;49.844;8.830;2023-07-02T14:28:07;24.90;18.70
8248;DHT22;4164;49.844;8.830;2023-07-02T14:30:32;26.10;22.30
8248;DHT22;4164;49.844;8.830;2023-07-02T14:32:58;26.30;22.10
8248;DHT22;4164;49.844;8.830;2023-07-02T14:35:23;25.90;20.90
8248;DHT22;4164;49.844;8.830;2023-07-02T14:37:50;24.70;18.00
8248;DHT22;4164;49.844;8.830;2023-07-02T14:40:16;24.40;17.80
8248;DHT22;4164;49.844;8.830;2023-07-02T14:42:42;24.20;17.80
8248;DHT22;4164;49.844;8.830;2023-07-02T14:45:07;24.40;19.30
8248;DHT22;4164;49.844;8.830;2023-07-02T14:47:34;23.70;15.80
8248;DHT22;4164;49.844;8.830;2023-07-02T14:50:00;24.40;19.20
8248;DHT22;4164;49.844;8.830;2023-07-02T14:52:26;24.10;18.20
8248;DHT22;4164;49.844;8.830;2023-07-02T14:54:51;24.00;18.00
8248;DHT22;4164;49.844;8.830;2023-07-02T14:57:17;24.40;20.70
8248;DHT22;4164;49.844;8.830;2023-07-02T14:59:47;24.60;21.10
8248;DHT22;4164;49.844;8.830;2023-07-02T15:02:14;24.20;19.70
8248;DHT22;4164;49.844;8.830;2023-07-02T15:04:40;24.40;20.70
8248;DHT22;4164;49.844;8.830;2023-07-02T15:07:06;24.20;19.30
8248;DHT22;4164;49.844;8.830;2023-07-02T15:09:32;24.50;21.10
8248;DHT22;4164;49.844;8.830;2023-07-02T15:11:57;25.40;22.20
8248;DHT22;4164;49.844;8.830;2023-07-02T15:14:23;25.80;21.80
8248;DHT22;4164;49.844;8.830;2023-07-02T15:16:48;25.80;21.80
8248;DHT22;4164;49.844;8.830;2023-07-02T15:19:14;26.20;22.00
8248;DHT22;4164;49.844;8.830;2023-07-02T15:21:41;25.70;20.40
8248;DHT22;4164;49.844;8.830;2023-07-02T15:24:07;25.30;18.00
8248;DHT22;4164;49.844;8.830;2023-07-02T15:26:36;25.10;16.50
8248;DHT22;4164;49.844;8.830;2023-07-02T15:29:01;24.40;14.30
8248;DHT22;4164;49.844;8.830;2023-07-02T15:31:27;24.20;14.40
8248;DHT22;4164;49.844;8.830;2023-07-02T15:33:53;24.40;15.80
8248;DHT22;4164;49.844;8.830;2023-07-02T15:36:19;24.90;17.80
8248;DHT22;4164;49.844;8.830;2023-07-02T15:38:47;24.80;16.90
8248;DHT22;4164;49.844;8.830;2023-07-02T15:41:18;25.10;18.20
8248;DHT22;4164;49.844;8.830;2023-07-02T15:43:45;24.80;16.30
8248;DHT22;4164;49.844;8.830;2023-07-02T15:46:14;24.20;17.70
8248;DHT22;4164;49.844;8.830;2023-07-02T15:48:40;24.10;17.20
8248;DHT22;4164;49.844;8.830;2023-07-02T15:51:07;24.50;19.00
8248;DHT22;4164;49.844;8.830;2023-07-02T15:53:34;24.30;16.50
8248;DHT22;4164;49.844;8.830;2023-07-02T15:56:00;24.30;17.00
8248;DHT22;4164;49.844;8.830;2023-07-02T15:58:27;24.30;17.00
8248;DHT22;4164;49.844;8.830;2023-07-02T16:00:53;24.10;16.40
8248;DHT22;4164;49.844;8.830;2023-07-02T16:03:20;24.10;16.00
8248;DHT22;4164;49.844;8.830;2023-07-02T16:05:45;24.00;16.60